W.p. Scott — WDJ2782 — position and weather

sailwx.info

Track history (hours):
 
Tides and Currents Weather Stations Pressure Air Temp Water Temp Dewpoint Dewpoint Depression Visibility Wind Speed Wind Dir Waves Ship Positions

W.p. Scott

Owner: MOBRO Marine, Inc., Green Cove Springs, FL. More information available from US FCC via Universal Licensing System and Coast Guard Vessel Documentation Center.

Last reported at 2018-Aug-22 23:21 UTC. Time now 2018-Oct-17 05:24 UTC.
Position N 26°59' W 080°05'.
Warning: this ship's position is 55 days out of date.

Length 13 m.

Type: Tug. MMSI: 367761670.

Date/timePositionNaut miles runAvg speedWind from/ knotsBaromVisibWave heightAir tempDewpointWater temp
2018-Aug-22 23:21N 26°59' W 080°05'2 5.5
2018-Aug-22 23:01N 26°57' W 080°05'0 5.8
2018-Aug-22 23:00N 26°57' W 080°05'4 5.9
2018-Aug-22 22:20N 26°53' W 080°04'0 0.2
2018-Aug-22 19:29N 26°53' W 080°04'3 5.8
2018-Aug-22 19:03N 26°55' W 080°05'0 6.8
2018-Aug-22 19:00N 26°55' W 080°05'2 3.7
2018-Aug-22 18:30N 26°57' W 080°05'3 5.8
2018-Aug-22 18:03N 26°60' W 080°06'0 5.6
2018-Aug-22 18:00N 27°00' W 080°06'  
Track history (hours):
 
Tides and Currents Weather Stations Pressure Air Temp Water Temp Dewpoint Dewpoint Depression Visibility Wind Speed Wind Dir Waves Ship Positions

W.p. Scott

Owner: MOBRO Marine, Inc., Green Cove Springs, FL. More information available from US FCC via Universal Licensing System and Coast Guard Vessel Documentation Center.

Last reported at 2018-Aug-22 23:21 UTC. Time now 2018-Oct-17 05:24 UTC.
Position N 26°59' W 080°05'.
Warning: this ship's position is 55 days out of date.

Length 13 m.

Type: Tug. MMSI: 367761670.

Date/timePositionNaut miles runAvg speedWind from/ knotsBaromVisibWave heightAir tempDewpointWater temp
2018-Aug-22 23:21N 26°59' W 080°05'2 5.5
2018-Aug-22 23:01N 26°57' W 080°05'0 5.8
2018-Aug-22 23:00N 26°57' W 080°05'4 5.9
2018-Aug-22 22:20N 26°53' W 080°04'0 0.2
2018-Aug-22 19:29N 26°53' W 080°04'3 5.8
2018-Aug-22 19:03N 26°55' W 080°05'0 6.8
2018-Aug-22 19:00N 26°55' W 080°05'2 3.7
2018-Aug-22 18:30N 26°57' W 080°05'3 5.8
2018-Aug-22 18:03N 26°60' W 080°06'0 5.6
2018-Aug-22 18:00N 27°00' W 080°06'  

Dump ship's entire track history